createdAt,value
2018-04-14T00:02:10.368Z,11.57
2018-04-14T00:04:37.894Z,10.85
2018-04-14T00:07:05.435Z,10.80
2018-04-14T00:09:32.994Z,11.90
2018-04-14T00:12:02.040Z,13.13
2018-04-14T00:14:29.590Z,11.60
2018-04-14T00:16:57.120Z,12.70
2018-04-14T00:19:24.661Z,13.10
2018-04-14T00:21:52.191Z,13.18
2018-04-14T00:24:19.722Z,13.10
2018-04-14T00:26:47.266Z,12.93
2018-04-14T00:29:14.788Z,13.50
2018-04-14T00:31:42.301Z,14.60
2018-04-14T00:34:09.837Z,13.50
2018-04-14T00:36:37.402Z,13.52
2018-04-14T00:39:05.737Z,12.98
2018-04-14T00:41:33.271Z,13.13
2018-04-14T00:44:00.895Z,14.10
2018-04-14T00:46:28.443Z,13.95
2018-04-14T00:48:56.738Z,13.55
2018-04-14T00:51:25.001Z,14.00
2018-04-14T00:53:53.292Z,13.93
2018-04-14T00:56:21.588Z,13.32
2018-04-14T00:58:49.113Z,14.70
2018-04-14T01:01:16.720Z,14.57
2018-04-14T01:03:44.233Z,13.73
2018-04-14T01:06:11.749Z,14.73
2018-04-14T01:08:39.289Z,17.12
2018-04-14T01:11:06.831Z,16.67
2018-04-14T01:13:34.359Z,16.25
2018-04-14T01:16:01.961Z,14.73
2018-04-14T01:18:29.489Z,16.37
2018-04-14T01:20:57.878Z,14.48
2018-04-14T01:23:26.168Z,15.23
2018-04-14T01:25:53.745Z,15.70
2018-04-14T01:28:21.282Z,16.25
2018-04-14T01:30:48.806Z,16.73
2018-04-14T01:33:16.335Z,16.50
2018-04-14T01:35:43.846Z,17.42
2018-04-14T01:38:11.372Z,19.30
2018-04-14T01:40:38.898Z,17.10
2018-04-14T01:43:06.413Z,16.62
2018-04-14T01:45:33.940Z,17.40
2018-04-14T01:48:01.517Z,18.10
2018-04-14T01:50:29.022Z,19.27
2018-04-14T01:52:57.305Z,17.93
2018-04-14T01:55:24.826Z,20.65
2018-04-14T01:57:52.447Z,19.48
2018-04-14T02:00:19.983Z,20.90
2018-04-14T02:02:48.280Z,19.30
2018-04-14T02:05:15.777Z,21.20
2018-04-14T02:07:43.299Z,21.77
2018-04-14T02:10:10.808Z,21.02
2018-04-14T02:12:38.364Z,21.77
2018-04-14T02:15:05.869Z,21.58
2018-04-14T02:17:33.406Z,21.83
2018-04-14T02:20:01.686Z,21.65
2018-04-14T02:22:29.958Z,22.57
2018-04-14T02:24:57.516Z,22.98
2018-04-14T02:27:25.028Z,23.08
2018-04-14T02:29:52.578Z,23.17
2018-04-14T02:32:20.096Z,23.27
2018-04-14T02:34:47.630Z,22.13
2018-04-14T02:37:15.197Z,24.30
2018-04-14T02:39:42.753Z,22.02
2018-04-14T02:42:10.290Z,22.25
2018-04-14T02:44:37.815Z,23.67
2018-04-14T02:47:06.132Z,23.48
2018-04-14T02:49:33.673Z,22.85
2018-04-14T02:52:01.229Z,23.90
2018-04-14T02:54:28.958Z,24.58
2018-04-14T02:56:56.483Z,22.70
2018-04-14T02:59:24.052Z,23.60
2018-04-14T03:01:51.584Z,23.67
2018-04-14T03:04:19.109Z,23.77
2018-04-14T03:06:46.627Z,23.75
2018-04-14T03:09:14.149Z,24.30
2018-04-14T03:11:41.693Z,25.77
2018-04-14T03:14:09.228Z,24.00
2018-04-14T03:16:37.521Z,24.80
2018-04-14T03:19:05.802Z,22.48
2018-04-14T03:21:33.330Z,24.85
2018-04-14T03:24:00.853Z,27.30
2018-04-14T03:26:28.431Z,25.10
2018-04-14T03:28:55.990Z,25.00
2018-04-14T03:31:23.494Z,25.70
2018-04-14T03:33:51.032Z,25.27
2018-04-14T03:36:18.565Z,27.25
2018-04-14T03:38:46.127Z,28.08
2018-04-14T03:41:13.661Z,26.33
2018-04-14T03:43:41.204Z,28.00
2018-04-14T03:46:08.757Z,28.58
2018-04-14T03:48:37.038Z,28.45
2018-04-14T03:51:04.573Z,28.40
2018-04-14T03:53:32.177Z,27.27
2018-04-14T03:55:59.683Z,27.00
2018-04-14T03:58:27.209Z,26.75
2018-04-14T04:00:54.750Z,25.13
2018-04-14T04:03:22.316Z,23.83
2018-04-14T04:05:49.829Z,17.57
2018-04-14T04:08:17.345Z,23.20
2018-04-14T04:10:44.857Z,20.93
2018-04-14T04:13:13.146Z,20.08
2018-04-14T04:15:41.452Z,22.08
2018-04-14T04:18:08.984Z,20.57
2018-04-14T04:20:51.202Z,23.00
2018-04-14T04:23:30.678Z,23.05
2018-04-14T04:25:58.213Z,28.17
2018-04-14T04:28:25.756Z,27.75
2018-04-14T04:30:53.306Z,26.15
2018-04-14T04:33:20.945Z,26.60
2018-04-14T04:35:48.466Z,26.42
2018-04-14T04:38:16.010Z,24.47
2018-04-14T04:40:44.594Z,20.15
2018-04-14T04:43:12.109Z,20.40
2018-04-14T04:45:40.393Z,22.02
2018-04-14T04:48:08.664Z,24.10
2018-04-14T04:50:36.226Z,22.40
2018-04-14T04:53:03.749Z,21.02
2018-04-14T04:55:31.564Z,21.90
2018-04-14T04:57:59.108Z,20.62
2018-04-14T05:00:26.632Z,22.90
2018-04-14T05:02:54.193Z,26.83
2018-04-14T05:05:21.755Z,25.60
2018-04-14T05:07:49.279Z,27.87
2018-04-14T05:10:16.798Z,28.38
2018-04-14T05:12:44.325Z,31.40
2018-04-14T05:15:11.855Z,24.08
2018-04-14T05:17:39.374Z,34.43
2018-04-14T05:20:06.924Z,30.88
2018-04-14T05:22:34.507Z,35.60
2018-04-14T05:25:02.064Z,36.28
2018-04-14T05:27:29.604Z,38.08
2018-04-14T05:29:57.177Z,41.40
2018-04-14T05:32:24.726Z,43.15
2018-04-14T05:34:52.237Z,43.30
2018-04-14T05:37:19.746Z,41.92
2018-04-14T05:39:47.268Z,36.75
2018-04-14T05:42:14.796Z,40.00
2018-04-14T05:44:43.110Z,41.67
2018-04-14T05:47:10.778Z,39.65
2018-04-14T05:49:38.310Z,41.97
2018-04-14T05:52:05.832Z,34.45
2018-04-14T05:54:33.376Z,35.20
2018-04-14T05:57:00.877Z,35.72
2018-04-14T05:59:28.403Z,40.15
2018-04-14T06:01:55.936Z,40.33
2018-04-14T06:04:23.446Z,37.42
2018-04-14T06:06:50.994Z,30.47
2018-04-14T06:09:19.319Z,39.67
2018-04-14T06:11:46.832Z,35.20
2018-04-14T06:14:14.360Z,32.65
2018-04-14T06:16:41.906Z,34.95
2018-04-14T06:19:09.446Z,34.72
2018-04-14T06:21:36.965Z,37.63
2018-04-14T06:24:04.487Z,37.15
2018-04-14T06:26:32.020Z,36.58
2018-04-14T06:28:59.561Z,31.80
2018-04-14T06:31:28.776Z,35.00
2018-04-14T06:33:56.311Z,31.02
2018-04-14T06:36:23.833Z,34.20
2018-04-14T06:38:51.377Z,36.28
2018-04-14T06:41:18.936Z,32.28
2018-04-14T06:43:46.463Z,33.10
2018-04-14T06:46:14.048Z,38.03
2018-04-14T06:48:41.588Z,39.92
2018-04-14T06:51:09.881Z,36.35
2018-04-14T06:53:37.417Z,43.10
2018-04-14T06:56:05.684Z,42.88
2018-04-14T06:58:33.245Z,38.67
2018-04-14T07:01:00.775Z,45.47
2018-04-14T07:03:28.409Z,46.53
2018-04-14T07:05:55.994Z,46.97
2018-04-14T07:08:23.536Z,50.17
2018-04-14T07:10:51.061Z,44.43
2018-04-14T07:13:19.404Z,47.88
2018-04-14T07:15:46.946Z,50.50
2018-04-14T07:18:14.510Z,46.83
2018-04-14T07:20:42.016Z,46.47
2018-04-14T07:23:09.557Z,46.75
2018-04-14T07:25:37.070Z,47.97
2018-04-14T07:28:04.688Z,48.20
2018-04-14T07:30:32.209Z,48.97
2018-04-14T07:32:59.737Z,49.45
2018-04-14T07:35:27.249Z,45.25
2018-04-14T07:37:55.513Z,46.40
2018-04-14T07:40:23.843Z,44.53
2018-04-14T07:42:52.172Z,42.83
2018-04-14T07:45:19.914Z,40.08
2018-04-14T07:47:47.437Z,45.17
2018-04-14T07:50:15.008Z,46.13
2018-04-14T07:52:42.553Z,42.40
2018-04-14T07:55:10.842Z,49.63
2018-04-14T07:57:38.429Z,47.85
2018-04-14T08:00:05.944Z,57.92
2018-04-14T08:02:34.243Z,50.78
2018-04-14T08:05:02.556Z,50.30
2018-04-14T08:07:30.558Z,44.15
2018-04-14T08:09:58.092Z,52.38
2018-04-14T08:12:25.637Z,51.93
2018-04-14T08:14:53.180Z,53.78
2018-04-14T08:17:20.731Z,52.62
2018-04-14T08:19:48.256Z,54.38
2018-04-14T08:22:15.817Z,49.63
2018-04-14T08:24:43.378Z,47.55
2018-04-14T08:27:10.950Z,52.85
2018-04-14T08:29:38.510Z,52.45
2018-04-14T08:32:06.051Z,54.97
2018-04-14T08:34:33.566Z,52.67
2018-04-14T08:37:01.102Z,53.33
2018-04-14T08:39:29.403Z,47.13
2018-04-14T08:41:56.924Z,53.42
2018-04-14T08:44:24.449Z,51.92
2018-04-14T08:46:51.984Z,47.33
2018-04-14T08:49:19.528Z,52.95
2018-04-14T08:51:47.047Z,51.17
2018-04-14T08:54:14.563Z,53.03
2018-04-14T08:56:42.088Z,50.85
2018-04-14T08:59:09.648Z,49.90
2018-04-14T09:01:37.959Z,52.72
2018-04-14T09:04:05.534Z,49.50
2018-04-14T09:06:33.064Z,50.35
2018-04-14T09:09:00.614Z,51.33
2018-04-14T09:11:28.162Z,50.08
2018-04-14T09:13:56.533Z,49.80
2018-04-14T09:16:24.054Z,48.42
2018-04-14T09:18:51.622Z,44.55
2018-04-14T09:21:19.151Z,49.67
2018-04-14T09:23:46.786Z,48.38
2018-04-14T09:26:15.087Z,46.50
2018-04-14T09:28:42.635Z,48.87
2018-04-14T09:31:10.918Z,45.47
2018-04-14T09:33:38.530Z,40.22
2018-04-14T09:36:06.045Z,36.70
2018-04-14T09:38:33.629Z,41.97
2018-04-14T09:41:01.151Z,40.80
2018-04-14T09:43:28.752Z,33.40
2018-04-14T09:45:56.293Z,39.90
2018-04-14T09:48:23.838Z,40.65
2018-04-14T09:50:51.379Z,32.70
2018-04-14T09:53:19.687Z,35.90
2018-04-14T09:55:47.221Z,35.80
2018-04-14T09:58:14.753Z,34.10
2018-04-14T10:00:47.960Z,35.85
2018-04-14T10:03:21.086Z,33.17
2018-04-14T10:05:48.659Z,31.50
2018-04-14T10:08:16.185Z,28.10
2018-04-14T10:10:43.689Z,29.58
2018-04-14T10:13:11.218Z,27.90
2018-04-14T10:15:39.529Z,28.92
2018-04-14T10:18:07.069Z,26.00
2018-04-14T10:20:34.623Z,27.90
2018-04-14T10:23:02.176Z,30.12
2018-04-14T10:25:29.716Z,28.67
2018-04-14T10:27:58.140Z,25.67
2018-04-14T10:30:25.677Z,25.08
2018-04-14T10:32:53.253Z,28.07
2018-04-14T10:35:20.768Z,29.00
2018-04-14T10:37:48.383Z,26.15
2018-04-14T10:40:16.051Z,27.13
2018-04-14T10:42:43.564Z,22.65
2018-04-14T10:45:11.960Z,25.98
2018-04-14T10:47:39.457Z,26.55
2018-04-14T10:50:07.056Z,24.40
2018-04-14T10:52:34.659Z,26.37
2018-04-14T10:55:02.208Z,26.30
2018-04-14T10:57:29.751Z,24.15
2018-04-14T10:59:58.055Z,24.60
2018-04-14T11:02:25.606Z,23.27
2018-04-14T11:04:53.150Z,23.92
2018-04-14T11:07:21.489Z,26.47
2018-04-14T11:09:49.218Z,26.30
2018-04-14T11:12:16.755Z,26.27
2018-04-14T11:14:44.301Z,26.25
2018-04-14T11:17:12.578Z,25.10
2018-04-14T11:19:40.091Z,26.45
2018-04-14T11:22:07.647Z,25.73
2018-04-14T11:24:35.971Z,25.05
2018-04-14T11:27:03.537Z,24.58
2018-04-14T11:29:31.841Z,26.87
2018-04-14T11:31:59.355Z,25.25
2018-04-14T11:34:26.878Z,24.77
2018-04-14T11:36:54.415Z,25.20
2018-04-14T11:39:21.933Z,25.00
2018-04-14T11:41:49.450Z,22.73
2018-04-14T11:44:16.993Z,23.77
2018-04-14T11:46:44.577Z,25.17
2018-04-14T11:49:12.115Z,25.10
2018-04-14T11:51:39.628Z,24.55
2018-04-14T11:54:07.186Z,25.80
2018-04-14T11:56:34.713Z,25.70
2018-04-14T11:59:02.298Z,25.08
2018-04-14T12:01:29.814Z,23.73
2018-04-14T12:03:57.352Z,24.90
2018-04-14T12:06:24.888Z,25.10
2018-04-14T12:08:52.453Z,23.95
2018-04-14T12:11:19.991Z,26.35
2018-04-14T12:13:47.512Z,24.92
2018-04-14T12:16:15.012Z,26.10
2018-04-14T12:18:42.534Z,25.65
2018-04-14T12:21:10.049Z,25.90
2018-04-14T12:23:37.625Z,30.17
2018-04-14T12:26:05.944Z,31.05
2018-04-14T12:28:33.502Z,31.73
2018-04-14T12:31:01.100Z,33.20
2018-04-14T12:33:28.645Z,31.58
2018-04-14T12:35:56.179Z,34.30
2018-04-14T12:38:23.694Z,33.90
2018-04-14T12:40:51.215Z,35.20
2018-04-14T12:43:18.759Z,33.63
2018-04-14T12:45:46.301Z,31.20
2018-04-14T12:48:13.844Z,35.17
2018-04-14T12:50:41.362Z,35.33
2018-04-14T12:53:08.891Z,35.13
2018-04-14T12:55:36.439Z,37.17
2018-04-14T12:58:03.967Z,34.78
2018-04-14T13:00:31.488Z,33.72
2018-04-14T13:02:59.008Z,33.67
2018-04-14T13:05:26.537Z,32.30
2018-04-14T13:07:54.060Z,32.05
2018-04-14T13:10:21.629Z,31.83
2018-04-14T13:12:49.154Z,29.92
2018-04-14T13:15:17.460Z,31.87
2018-04-14T13:17:44.981Z,30.65
2018-04-14T13:20:12.522Z,31.42
2018-04-14T13:22:40.099Z,30.15
2018-04-14T13:25:08.396Z,34.22
2018-04-14T13:27:35.924Z,35.72
2018-04-14T13:30:03.431Z,40.50
2018-04-14T13:32:30.958Z,31.63
2018-04-14T13:34:59.193Z,29.92
2018-04-14T13:37:26.717Z,30.52
2018-04-14T13:39:54.238Z,29.27
2018-04-14T13:42:22.560Z,28.27
2018-04-14T13:44:50.123Z,25.23
2018-04-14T13:47:17.688Z,25.15
2018-04-14T13:49:45.949Z,25.10
2018-04-14T13:52:13.468Z,22.87
2018-04-14T13:54:40.977Z,24.25
2018-04-14T13:57:08.497Z,23.73
2018-04-14T13:59:36.773Z,25.30
2018-04-14T14:02:05.101Z,24.10
2018-04-14T14:04:32.637Z,23.73
2018-04-14T14:07:00.157Z,25.23
2018-04-14T14:09:27.721Z,25.62
2018-04-14T14:11:55.437Z,28.62
2018-04-14T14:14:22.973Z,24.83
2018-04-14T14:16:51.259Z,25.85
2018-04-14T14:19:18.776Z,25.02
2018-04-14T14:21:46.311Z,26.15
2018-04-14T14:24:13.954Z,24.55
2018-04-14T14:26:41.509Z,27.25
2018-04-14T14:29:09.033Z,25.90
2018-04-14T14:31:36.711Z,29.77
2018-04-14T14:34:05.015Z,26.92
2018-04-14T14:36:32.573Z,27.30
2018-04-14T14:39:00.082Z,27.35
2018-04-14T14:41:27.624Z,25.67
2018-04-14T14:43:55.138Z,26.95
2018-04-14T14:46:22.659Z,27.40
2018-04-14T14:48:50.206Z,28.15
2018-04-14T14:51:17.751Z,27.17
2018-04-14T14:53:45.291Z,22.02
2018-04-14T14:56:12.812Z,29.85
2018-04-14T14:58:40.401Z,31.55
2018-04-14T15:01:08.016Z,29.15
2018-04-14T15:03:36.360Z,28.45
2018-04-14T15:06:03.910Z,30.85
2018-04-14T15:08:31.465Z,30.80
2018-04-14T15:10:58.986Z,31.67
2018-04-14T15:13:27.296Z,23.90
2018-04-14T15:15:54.805Z,30.20
2018-04-14T15:18:22.318Z,30.02
2018-04-14T15:20:49.845Z,29.50
2018-04-14T15:23:17.361Z,28.70
2018-04-14T15:25:44.911Z,28.62
2018-04-14T15:28:12.480Z,25.75
2018-04-14T15:30:40.748Z,26.42
2018-04-14T15:33:08.389Z,25.27
2018-04-14T15:35:35.905Z,27.50
2018-04-14T15:38:03.480Z,29.35
2018-04-14T15:40:31.133Z,28.48
2018-04-14T15:42:58.751Z,23.80
2018-04-14T15:45:26.280Z,26.27
2018-04-14T15:47:54.599Z,28.83
2018-04-14T15:50:22.146Z,26.62
2018-04-14T15:52:49.713Z,26.02
2018-04-14T15:55:17.262Z,24.30
2018-04-14T15:57:44.807Z,25.23
2018-04-14T16:00:12.347Z,26.48
2018-04-14T16:02:39.941Z,28.25
2018-04-14T16:05:07.470Z,26.27
2018-04-14T16:07:35.029Z,33.20
2018-04-14T16:10:03.374Z,27.15
2018-04-14T16:12:30.893Z,27.55
2018-04-14T16:14:58.464Z,27.30
2018-04-14T16:17:26.013Z,31.50
2018-04-14T16:19:53.594Z,33.67
2018-04-14T16:22:21.179Z,34.08
2018-04-14T16:24:48.701Z,35.30
2018-04-14T16:27:16.273Z,31.20
2018-04-14T16:29:43.807Z,36.97
2018-04-14T16:32:12.758Z,33.03
2018-04-14T16:34:40.488Z,33.15
2018-04-14T16:37:08.029Z,31.65
2018-04-14T16:39:35.550Z,27.90
2018-04-14T16:42:03.144Z,28.00
2018-04-14T16:44:30.719Z,27.48
2018-04-14T16:46:58.245Z,30.12
2018-04-14T16:49:25.850Z,28.15
2018-04-14T16:51:53.340Z,26.42
2018-04-14T16:54:20.886Z,26.80
2018-04-14T16:56:48.401Z,28.38
2018-04-14T16:59:15.944Z,29.75
2018-04-14T17:01:44.249Z,27.10
2018-04-14T17:04:11.823Z,27.40
2018-04-14T17:06:39.737Z,28.20
2018-04-14T17:09:08.099Z,26.20
2018-04-14T17:11:35.638Z,28.42
2018-04-14T17:14:03.155Z,26.52
2018-04-14T17:16:31.454Z,25.95
2018-04-14T17:18:58.991Z,26.05
2018-04-14T17:21:26.492Z,25.30
2018-04-14T17:23:54.018Z,26.40
2018-04-14T17:26:22.425Z,27.35
2018-04-14T17:28:49.967Z,27.23
2018-04-14T17:31:17.502Z,27.55
2018-04-14T17:33:45.080Z,27.35
2018-04-14T17:36:13.377Z,32.55
2018-04-14T17:38:40.942Z,31.45
2018-04-14T17:41:08.503Z,32.28
2018-04-14T17:43:36.032Z,47.55
2018-04-14T17:46:04.336Z,51.75
2018-04-14T17:48:31.867Z,44.50
2018-04-14T17:51:00.174Z,47.65
2018-04-14T17:53:27.751Z,45.33
2018-04-14T17:55:55.271Z,42.45
2018-04-14T17:58:23.574Z,44.55
2018-04-14T18:00:51.133Z,43.70
2018-04-14T18:03:18.691Z,42.25
2018-04-14T18:05:46.264Z,41.15
2018-04-14T18:08:13.820Z,42.80
2018-04-14T18:10:42.356Z,41.85
2018-04-14T18:13:10.111Z,42.47
2018-04-14T18:15:37.662Z,41.58
2018-04-14T18:18:05.195Z,44.28
2018-04-14T18:20:32.716Z,48.70
2018-04-14T18:23:01.124Z,42.55
2018-04-14T18:25:28.626Z,41.80
2018-04-14T18:27:56.244Z,42.08
2018-04-14T18:30:23.752Z,42.58
2018-04-14T18:32:51.280Z,43.30
2018-04-14T18:35:18.821Z,43.20
2018-04-14T18:37:46.486Z,50.65
2018-04-14T18:40:14.137Z,40.50
2018-04-14T18:42:41.659Z,45.67
2018-04-14T18:45:09.190Z,48.08
2018-04-14T18:47:36.747Z,45.80
2018-04-14T18:50:04.279Z,42.17
2018-04-14T18:52:31.829Z,46.67
2018-04-14T18:54:59.445Z,46.42
2018-04-14T18:57:27.015Z,45.15
2018-04-14T18:59:55.543Z,46.75
2018-04-14T19:02:23.093Z,45.67
2018-04-14T19:04:50.621Z,43.15
2018-04-14T19:07:18.160Z,42.97
2018-04-14T19:09:45.706Z,43.80
2018-04-14T19:12:13.244Z,42.20
2018-04-14T19:14:40.809Z,43.22
2018-04-14T19:17:08.356Z,42.58
2018-04-14T19:19:35.874Z,40.08
2018-04-14T19:22:03.383Z,44.42
2018-04-14T19:24:31.057Z,43.33
2018-04-14T19:26:58.613Z,40.75
2018-04-14T19:29:26.138Z,42.33
2018-04-14T19:31:53.800Z,43.28
2018-04-14T19:34:21.327Z,75.43
2018-04-14T19:36:48.893Z,44.85
2018-04-14T19:39:16.422Z,42.92
2018-04-14T19:41:44.043Z,42.42
2018-04-14T19:44:11.680Z,42.72
2018-04-14T19:46:39.245Z,43.85
2018-04-14T19:49:06.944Z,42.05
2018-04-14T19:51:34.481Z,43.85
2018-04-14T19:54:02.042Z,41.35
2018-04-14T19:56:33.178Z,41.58
2018-04-14T19:59:00.818Z,42.35
2018-04-14T20:01:29.270Z,43.72
2018-04-14T20:03:56.818Z,86.80
2018-04-14T20:06:24.403Z,96.12
2018-04-14T20:08:52.055Z,55.15
2018-04-14T20:11:19.651Z,42.05
2018-04-14T20:13:47.173Z,41.78
2018-04-14T20:16:14.749Z,41.72
2018-04-14T20:18:42.311Z,38.25
2018-04-14T20:21:09.833Z,39.38
2018-04-14T20:23:37.391Z,39.40
2018-04-14T20:26:05.674Z,37.65
2018-04-14T20:28:33.264Z,40.85
2018-04-14T20:31:00.821Z,39.67
2018-04-14T20:33:28.352Z,37.15
2018-04-14T20:35:56.763Z,37.88
2018-04-14T20:38:24.297Z,39.50
2018-04-14T20:40:51.820Z,39.58
2018-04-14T20:43:19.349Z,37.08
2018-04-14T20:45:46.863Z,36.72
2018-04-14T20:48:14.427Z,37.42
2018-04-14T20:50:41.976Z,38.38
2018-04-14T20:53:10.287Z,37.88
2018-04-14T20:55:37.892Z,45.17
2018-04-14T20:58:05.425Z,42.50
2018-04-14T21:00:32.948Z,42.25
2018-04-14T21:03:00.476Z,38.90
2018-04-14T21:05:28.018Z,39.92
2018-04-14T21:07:55.567Z,41.67
2018-04-14T21:10:23.090Z,41.08
2018-04-14T21:12:50.626Z,43.53
2018-04-14T21:15:18.138Z,71.68
2018-04-14T21:17:45.652Z,40.97
2018-04-14T21:20:13.949Z,45.88
2018-04-14T21:22:41.478Z,45.35
2018-04-14T21:25:09.002Z,44.70
2018-04-14T21:27:37.306Z,46.97
2018-04-14T21:30:04.880Z,65.32
2018-04-14T21:32:33.168Z,70.57
2018-04-14T21:35:00.688Z,53.95
2018-04-14T21:37:29.023Z,51.28
2018-04-14T21:39:56.575Z,55.00
2018-04-14T21:42:24.142Z,53.22
2018-04-14T21:44:51.684Z,49.63
2018-04-14T21:47:19.201Z,53.30
2018-04-14T21:49:46.738Z,56.75
2018-04-14T21:52:14.258Z,56.33
2018-04-14T21:54:41.815Z,56.35
2018-04-14T21:57:10.117Z,53.22
2018-04-14T21:59:38.449Z,71.70
2018-04-14T22:02:05.969Z,61.20
2018-04-14T22:04:33.475Z,55.15
2018-04-14T22:07:00.981Z,59.55
2018-04-14T22:09:28.531Z,58.00
2018-04-14T22:11:56.072Z,54.42
2018-04-14T22:14:33.246Z,59.15
2018-04-14T22:17:00.786Z,55.00
2018-04-14T22:19:28.308Z,54.45
2018-04-14T22:21:55.837Z,67.70
2018-04-14T22:24:23.539Z,58.13
2018-04-14T22:26:51.062Z,60.12
2018-04-14T22:29:19.353Z,53.40
2018-04-14T22:31:46.911Z,55.58
2018-04-14T22:34:14.425Z,63.50
2018-04-14T22:36:41.935Z,62.22
2018-04-14T22:39:09.469Z,56.83
2018-04-14T22:41:37.802Z,52.75
2018-04-14T22:44:05.344Z,59.90
2018-04-14T22:46:32.907Z,55.53
2018-04-14T22:49:00.424Z,63.87
2018-04-14T22:51:28.757Z,64.40
2018-04-14T22:53:56.282Z,67.00
2018-04-14T22:56:23.940Z,63.30
2018-04-14T22:58:51.491Z,65.82
2018-04-14T23:01:19.850Z,57.85
2018-04-14T23:03:47.377Z,55.70
2018-04-14T23:06:14.899Z,55.10
2018-04-14T23:08:43.250Z,55.60
2018-04-14T23:11:10.760Z,56.15
2018-04-14T23:13:38.302Z,56.67
2018-04-14T23:16:06.691Z,60.00
2018-04-14T23:18:34.285Z,56.13
2018-04-14T23:21:01.929Z,53.58
2018-04-14T23:23:29.520Z,57.80
2018-04-14T23:25:57.034Z,56.70
2018-04-14T23:28:24.545Z,63.53
2018-04-14T23:30:52.073Z,70.95
2018-04-14T23:33:19.633Z,192.20
2018-04-14T23:35:47.180Z,71.60
2018-04-14T23:38:14.698Z,57.97
2018-04-14T23:40:42.236Z,56.83
2018-04-14T23:43:09.789Z,59.85
2018-04-14T23:45:37.327Z,56.42
2018-04-14T23:48:04.882Z,64.50
2018-04-14T23:50:32.401Z,69.95
2018-04-14T23:53:00.721Z,74.78
2018-04-14T23:55:28.254Z,170.02
2018-04-14T23:57:55.787Z,193.85
